sensor_id;sensor_type;location;lat;lon;timestamp;pressure;altitude;pressure_sealevel;temperature;humidity
56038;BME280;41907;47.848;9.000;2023-04-26T00:00:33;95718.47;;;6.33;100.00
56038;BME280;41907;47.848;9.000;2023-04-26T00:02:59;95718.81;;;6.26;100.00
56038;BME280;41907;47.848;9.000;2023-04-26T00:05:24;95724.66;;;6.23;100.00
56038;BME280;41907;47.848;9.000;2023-04-26T00:07:49;95725.28;;;6.15;100.00
56038;BME280;41907;47.848;9.000;2023-04-26T00:10:15;95725.63;;;6.09;100.00
56038;BME280;41907;47.848;9.000;2023-04-26T00:12:40;95739.66;;;6.04;100.00
56038;BME280;41907;47.848;9.000;2023-04-26T00:15:06;95727.81;;;6.02;100.00
56038;BME280;41907;47.848;9.000;2023-04-26T00:17:32;95732.53;;;6.05;100.00
56038;BME280;41907;47.848;9.000;2023-04-26T00:19:57;95741.03;;;6.02;100.00
56038;BME280;41907;47.848;9.000;2023-04-26T00:22:23;95738.94;;;5.98;100.00
56038;BME280;41907;47.848;9.000;2023-04-26T00:24:49;95728.88;;;6.01;100.00
56038;BME280;41907;47.848;9.000;2023-04-26T00:27:15;95743.16;;;6.00;100.00
56038;BME280;41907;47.848;9.000;2023-04-26T00:29:40;95743.72;;;5.96;100.00
56038;BME280;41907;47.848;9.000;2023-04-26T00:32:05;95745.06;;;5.94;100.00
56038;BME280;41907;47.848;9.000;2023-04-26T00:34:34;95742.69;;;5.92;100.00
56038;BME280;41907;47.848;9.000;2023-04-26T00:36:59;95736.63;;;5.87;100.00
56038;BME280;41907;47.848;9.000;2023-04-26T00:39:25;95752.16;;;5.65;100.00
56038;BME280;41907;47.848;9.000;2023-04-26T00:41:51;95746.34;;;5.57;100.00
56038;BME280;41907;47.848;9.000;2023-04-26T00:44:16;95753.75;;;5.60;100.00
56038;BME280;41907;47.848;9.000;2023-04-26T00:46:41;95751.09;;;5.66;100.00
56038;BME280;41907;47.848;9.000;2023-04-26T00:49:07;95751.88;;;5.66;100.00
56038;BME280;41907;47.848;9.000;2023-04-26T00:51:32;95757.44;;;5.65;100.00
56038;BME280;41907;47.848;9.000;2023-04-26T00:53:58;95759.75;;;5.71;100.00
56038;BME280;41907;47.848;9.000;2023-04-26T00:56:23;95757.31;;;5.80;100.00
56038;BME280;41907;47.848;9.000;2023-04-26T00:58:49;95757.00;;;5.86;100.00
56038;BME280;41907;47.848;9.000;2023-04-26T01:01:14;95756.47;;;5.89;100.00
56038;BME280;41907;47.848;9.000;2023-04-26T01:03:40;95758.31;;;5.94;100.00
56038;BME280;41907;47.848;9.000;2023-04-26T01:06:05;95758.31;;;5.94;100.00
56038;BME280;41907;47.848;9.000;2023-04-26T01:08:31;95754.56;;;6.00;100.00
56038;BME280;41907;47.848;9.000;2023-04-26T01:10:56;95753.44;;;6.06;100.00
56038;BME280;41907;47.848;9.000;2023-04-26T01:13:22;95750.75;;;6.11;100.00
56038;BME280;41907;47.848;9.000;2023-04-26T01:15:48;95748.56;;;6.18;100.00
56038;BME280;41907;47.848;9.000;2023-04-26T01:18:14;95743.50;;;6.22;100.00
56038;BME280;41907;47.848;9.000;2023-04-26T01:20:42;95756.44;;;6.23;100.00
56038;BME280;41907;47.848;9.000;2023-04-26T01:23:08;95753.84;;;6.18;100.00
56038;BME280;41907;47.848;9.000;2023-04-26T01:25:33;95749.91;;;6.16;100.00
56038;BME280;41907;47.848;9.000;2023-04-26T01:27:58;95754.69;;;6.14;100.00
56038;BME280;41907;47.848;9.000;2023-04-26T01:30:24;95747.03;;;6.12;100.00
56038;BME280;41907;47.848;9.000;2023-04-26T01:32:49;95754.00;;;6.03;100.00
56038;BME280;41907;47.848;9.000;2023-04-26T01:35:14;95754.31;;;5.96;100.00
56038;BME280;41907;47.848;9.000;2023-04-26T01:37:40;95757.44;;;6.04;100.00
56038;BME280;41907;47.848;9.000;2023-04-26T01:40:05;95760.59;;;6.06;100.00
56038;BME280;41907;47.848;9.000;2023-04-26T01:42:31;95758.44;;;6.13;100.00
56038;BME280;41907;47.848;9.000;2023-04-26T01:44:56;95752.53;;;6.21;100.00
56038;BME280;41907;47.848;9.000;2023-04-26T01:47:21;95760.91;;;6.28;100.00
56038;BME280;41907;47.848;9.000;2023-04-26T01:49:47;95748.19;;;6.30;100.00
56038;BME280;41907;47.848;9.000;2023-04-26T01:52:12;95754.78;;;6.32;100.00
56038;BME280;41907;47.848;9.000;2023-04-26T01:54:37;95751.63;;;6.30;100.00
56038;BME280;41907;47.848;9.000;2023-04-26T01:57:02;95750.34;;;6.28;100.00
56038;BME280;41907;47.848;9.000;2023-04-26T01:59:28;95746.72;;;6.19;100.00
56038;BME280;41907;47.848;9.000;2023-04-26T02:01:53;95738.53;;;6.15;100.00
56038;BME280;41907;47.848;9.000;2023-04-26T02:04:18;95738.06;;;6.08;100.00
56038;BME280;41907;47.848;9.000;2023-04-26T02:06:44;95739.13;;;6.07;100.00
56038;BME280;41907;47.848;9.000;2023-04-26T02:09:09;95739.97;;;6.03;100.00
56038;BME280;41907;47.848;9.000;2023-04-26T02:11:35;95732.34;;;5.96;100.00
56038;BME280;41907;47.848;9.000;2023-04-26T02:14:00;95723.66;;;5.85;100.00
56038;BME280;41907;47.848;9.000;2023-04-26T02:16:26;95730.13;;;5.74;100.00
56038;BME280;41907;47.848;9.000;2023-04-26T02:18:51;95724.38;;;5.62;100.00
56038;BME280;41907;47.848;9.000;2023-04-26T02:21:17;95721.53;;;5.53;100.00
56038;BME280;41907;47.848;9.000;2023-04-26T02:23:42;95720.00;;;5.42;100.00
56038;BME280;41907;47.848;9.000;2023-04-26T02:26:08;95717.16;;;5.34;100.00
56038;BME280;41907;47.848;9.000;2023-04-26T02:28:33;95715.41;;;5.19;100.00
56038;BME280;41907;47.848;9.000;2023-04-26T02:30:58;95729.19;;;5.11;100.00
56038;BME280;41907;47.848;9.000;2023-04-26T02:33:24;95722.88;;;5.02;100.00
56038;BME280;41907;47.848;9.000;2023-04-26T02:35:49;95736.44;;;4.90;100.00
56038;BME280;41907;47.848;9.000;2023-04-26T02:38:14;95730.63;;;4.83;100.00
56038;BME280;41907;47.848;9.000;2023-04-26T02:40:39;95723.81;;;4.72;100.00
56038;BME280;41907;47.848;9.000;2023-04-26T02:43:05;95719.59;;;4.71;100.00
56038;BME280;41907;47.848;9.000;2023-04-26T02:45:30;95721.97;;;4.72;100.00
56038;BME280;41907;47.848;9.000;2023-04-26T02:47:55;95727.00;;;4.69;100.00
56038;BME280;41907;47.848;9.000;2023-04-26T02:50:20;95718.03;;;4.65;100.00
56038;BME280;41907;47.848;9.000;2023-04-26T02:52:45;95720.16;;;4.63;100.00
56038;BME280;41907;47.848;9.000;2023-04-26T02:55:11;95722.28;;;4.56;100.00
56038;BME280;41907;47.848;9.000;2023-04-26T02:57:36;95727.88;;;4.39;100.00
56038;BME280;41907;47.848;9.000;2023-04-26T03:00:03;95723.69;;;4.33;100.00
56038;BME280;41907;47.848;9.000;2023-04-26T03:02:29;95717.91;;;4.21;100.00
56038;BME280;41907;47.848;9.000;2023-04-26T03:04:55;95722.66;;;4.24;100.00
56038;BME280;41907;47.848;9.000;2023-04-26T03:07:20;95732.66;;;4.32;100.00
56038;BME280;41907;47.848;9.000;2023-04-26T03:09:45;95732.13;;;4.30;100.00
56038;BME280;41907;47.848;9.000;2023-04-26T03:12:10;95728.44;;;4.31;100.00
56038;BME280;41907;47.848;9.000;2023-04-26T03:14:36;95730.53;;;4.39;100.00
56038;BME280;41907;47.848;9.000;2023-04-26T03:17:01;95732.31;;;4.54;100.00
56038;BME280;41907;47.848;9.000;2023-04-26T03:19:26;95731.22;;;4.65;100.00
56038;BME280;41907;47.848;9.000;2023-04-26T03:21:52;95729.16;;;4.62;100.00
56038;BME280;41907;47.848;9.000;2023-04-26T03:24:17;95730.44;;;4.64;100.00
56038;BME280;41907;47.848;9.000;2023-04-26T03:26:43;95731.19;;;4.75;100.00
56038;BME280;41907;47.848;9.000;2023-04-26T03:29:08;95733.31;;;4.78;100.00
56038;BME280;41907;47.848;9.000;2023-04-26T03:31:33;95732.25;;;4.74;100.00
56038;BME280;41907;47.848;9.000;2023-04-26T03:33:58;95734.13;;;4.63;100.00
56038;BME280;41907;47.848;9.000;2023-04-26T03:36:24;95731.81;;;4.46;100.00
56038;BME280;41907;47.848;9.000;2023-04-26T03:38:49;95736.06;;;4.53;100.00
56038;BME280;41907;47.848;9.000;2023-04-26T03:41:16;95723.91;;;4.46;100.00
56038;BME280;41907;47.848;9.000;2023-04-26T03:43:41;95726.00;;;4.49;100.00
56038;BME280;41907;47.848;9.000;2023-04-26T03:46:06;95721.50;;;4.55;100.00
56038;BME280;41907;47.848;9.000;2023-04-26T03:48:32;95719.44;;;4.42;100.00
56038;BME280;41907;47.848;9.000;2023-04-26T03:50:57;95715.47;;;4.34;100.00
56038;BME280;41907;47.848;9.000;2023-04-26T03:53:22;95717.31;;;4.39;100.00
56038;BME280;41907;47.848;9.000;2023-04-26T03:55:47;95722.06;;;4.37;100.00
56038;BME280;41907;47.848;9.000;2023-04-26T03:58:12;95723.66;;;4.38;100.00
56038;BME280;41907;47.848;9.000;2023-04-26T04:00:38;95714.94;;;4.37;100.00
56038;BME280;41907;47.848;9.000;2023-04-26T04:03:05;95717.88;;;4.26;100.00
56038;BME280;41907;47.848;9.000;2023-04-26T04:05:31;95710.00;;;4.00;100.00
56038;BME280;41907;47.848;9.000;2023-04-26T04:07:56;95710.78;;;4.06;100.00
56038;BME280;41907;47.848;9.000;2023-04-26T04:10:22;95714.50;;;4.00;100.00
56038;BME280;41907;47.848;9.000;2023-04-26T04:12:47;95708.94;;;3.96;100.00
56038;BME280;41907;47.848;9.000;2023-04-26T04:15:12;95709.25;;;3.85;100.00
56038;BME280;41907;47.848;9.000;2023-04-26T04:17:38;95712.16;;;3.83;100.00
56038;BME280;41907;47.848;9.000;2023-04-26T04:20:03;95710.03;;;3.80;100.00
56038;BME280;41907;47.848;9.000;2023-04-26T04:22:31;95711.09;;;3.74;100.00
56038;BME280;41907;47.848;9.000;2023-04-26T04:24:56;95715.84;;;3.72;100.00
56038;BME280;41907;47.848;9.000;2023-04-26T04:27:21;95717.41;;;3.78;100.00
56038;BME280;41907;47.848;9.000;2023-04-26T04:29:47;95722.16;;;3.91;100.00
56038;BME280;41907;47.848;9.000;2023-04-26T04:32:12;95727.97;;;3.93;100.00
56038;BME280;41907;47.848;9.000;2023-04-26T04:34:39;95731.38;;;3.99;100.00
56038;BME280;41907;47.848;9.000;2023-04-26T04:37:05;95726.91;;;3.99;100.00
56038;BME280;41907;47.848;9.000;2023-04-26T04:39:30;95728.19;;;4.07;100.00
56038;BME280;41907;47.848;9.000;2023-04-26T04:41:56;95722.91;;;4.07;100.00
56038;BME280;41907;47.848;9.000;2023-04-26T04:44:22;95731.88;;;4.16;100.00
56038;BME280;41907;47.848;9.000;2023-04-26T04:46:48;95727.91;;;4.29;100.00
56038;BME280;41907;47.848;9.000;2023-04-26T04:49:13;95737.38;;;4.45;100.00
56038;BME280;41907;47.848;9.000;2023-04-26T04:51:38;95742.72;;;5.48;100.00
56038;BME280;41907;47.848;9.000;2023-04-26T04:56:35;95721.66;;;7.44;100.00
56038;BME280;41907;47.848;9.000;2023-04-26T04:59:00;95725.47;;;9.45;91.36
56038;BME280;41907;47.848;9.000;2023-04-26T05:01:26;95714.66;;;10.30;81.32
56038;BME280;41907;47.848;9.000;2023-04-26T05:03:51;95734.22;;;9.59;81.79
56038;BME280;41907;47.848;9.000;2023-04-26T05:06:16;95727.41;;;11.12;76.60
56038;BME280;41907;47.848;9.000;2023-04-26T05:08:41;95727.16;;;12.09;70.76
56038;BME280;41907;47.848;9.000;2023-04-26T05:11:06;95732.59;;;12.47;67.21
56038;BME280;41907;47.848;9.000;2023-04-26T05:13:32;95726.81;;;12.83;64.89
56038;BME280;41907;47.848;9.000;2023-04-26T05:15:57;95734.56;;;13.05;63.59
56038;BME280;41907;47.848;9.000;2023-04-26T05:18:22;95744.59;;;13.25;62.71
56038;BME280;41907;47.848;9.000;2023-04-26T05:20:47;95741.38;;;13.82;60.56
56038;BME280;41907;47.848;9.000;2023-04-26T05:23:13;95741.66;;;14.22;59.05
56038;BME280;41907;47.848;9.000;2023-04-26T05:25:38;95746.47;;;14.49;57.54
56038;BME280;41907;47.848;9.000;2023-04-26T05:28:03;95740.72;;;14.72;56.47
56038;BME280;41907;47.848;9.000;2023-04-26T05:30:28;95745.66;;;15.06;55.18
56038;BME280;41907;47.848;9.000;2023-04-26T05:32:54;95743.31;;;15.29;54.11
56038;BME280;41907;47.848;9.000;2023-04-26T05:35:20;95748.19;;;15.88;52.58
56038;BME280;41907;47.848;9.000;2023-04-26T05:37:46;95745.47;;;16.28;51.08
56038;BME280;41907;47.848;9.000;2023-04-26T05:40:11;95742.66;;;16.52;49.79
56038;BME280;41907;47.848;9.000;2023-04-26T05:42:36;95756.03;;;16.21;51.20
56038;BME280;41907;47.848;9.000;2023-04-26T05:45:02;95755.69;;;16.94;48.56
56038;BME280;41907;47.848;9.000;2023-04-26T05:47:27;95754.31;;;17.16;47.59
56038;BME280;41907;47.848;9.000;2023-04-26T05:49:52;95753.28;;;17.71;46.33
56038;BME280;41907;47.848;9.000;2023-04-26T05:52:18;95764.03;;;18.06;45.50
56038;BME280;41907;47.848;9.000;2023-04-26T05:54:43;95763.22;;;16.72;47.57
56038;BME280;41907;47.848;9.000;2023-04-26T05:57:08;95765.59;;;15.17;52.80
56038;BME280;41907;47.848;9.000;2023-04-26T05:59:36;95772.00;;;14.35;55.85
56038;BME280;41907;47.848;9.000;2023-04-26T06:02:01;95775.09;;;14.25;56.39
56038;BME280;41907;47.848;9.000;2023-04-26T06:04:28;95773.88;;;12.84;61.09
56038;BME280;41907;47.848;9.000;2023-04-26T06:06:54;95774.41;;;12.68;63.77
56038;BME280;41907;47.848;9.000;2023-04-26T06:09:20;95773.09;;;14.55;58.12
56038;BME280;41907;47.848;9.000;2023-04-26T06:11:45;95769.72;;;16.44;50.94
56038;BME280;41907;47.848;9.000;2023-04-26T06:14:10;95773.63;;;18.03;46.87
56038;BME280;41907;47.848;9.000;2023-04-26T06:16:36;95777.50;;;19.48;42.26
56038;BME280;41907;47.848;9.000;2023-04-26T06:19:01;95773.50;;;19.91;41.50
56038;BME280;41907;47.848;9.000;2023-04-26T06:21:26;95782.44;;;19.95;40.64
56038;BME280;41907;47.848;9.000;2023-04-26T06:23:51;95784.53;;;19.52;41.53
56038;BME280;41907;47.848;9.000;2023-04-26T06:26:17;95787.16;;;19.03;42.68
56038;BME280;41907;47.848;9.000;2023-04-26T06:28:42;95784.59;;;18.49;42.70
56038;BME280;41907;47.848;9.000;2023-04-26T06:31:07;95786.88;;;18.47;43.25
56038;BME280;41907;47.848;9.000;2023-04-26T06:33:32;95789.66;;;16.83;47.42
56038;BME280;41907;47.848;9.000;2023-04-26T06:35:57;95800.75;;;16.53;49.38
56038;BME280;41907;47.848;9.000;2023-04-26T06:38:23;95789.34;;;16.16;49.26
56038;BME280;41907;47.848;9.000;2023-04-26T06:40:48;95803.09;;;16.55;49.98
56038;BME280;41907;47.848;9.000;2023-04-26T06:43:13;95800.06;;;16.56;49.21
56038;BME280;41907;47.848;9.000;2023-04-26T06:45:38;95800.16;;;16.04;48.98
56038;BME280;41907;47.848;9.000;2023-04-26T06:48:04;95793.59;;;15.29;51.77
56038;BME280;41907;47.848;9.000;2023-04-26T06:50:29;95801.50;;;14.56;54.29
56038;BME280;41907;47.848;9.000;2023-04-26T06:52:54;95805.72;;;13.53;57.40
56038;BME280;41907;47.848;9.000;2023-04-26T06:55:20;95793.66;;;12.53;61.63
56038;BME280;41907;47.848;9.000;2023-04-26T06:57:45;95793.84;;;12.22;64.70
56038;BME280;41907;47.848;9.000;2023-04-26T07:00:10;95791.25;;;12.69;62.63
56038;BME280;41907;47.848;9.000;2023-04-26T07:02:36;95792.47;;;12.80;61.34
56038;BME280;41907;47.848;9.000;2023-04-26T07:05:02;95782.41;;;12.77;62.79
56038;BME280;41907;47.848;9.000;2023-04-26T07:07:28;95790.28;;;14.41;57.30
56038;BME280;41907;47.848;9.000;2023-04-26T07:09:53;95780.41;;;16.12;52.37
56038;BME280;41907;47.848;9.000;2023-04-26T07:12:18;95779.09;;;16.62;47.59
56038;BME280;41907;47.848;9.000;2023-04-26T07:14:43;95792.16;;;14.62;54.48
56038;BME280;41907;47.848;9.000;2023-04-26T07:17:09;95782.63;;;15.46;51.88
56038;BME280;41907;47.848;9.000;2023-04-26T07:19:34;95779.47;;;15.44;50.55
56038;BME280;41907;47.848;9.000;2023-04-26T07:21:59;95783.56;;;14.14;53.14
56038;BME280;41907;47.848;9.000;2023-04-26T07:24:25;95781.50;;;13.49;53.81
56038;BME280;41907;47.848;9.000;2023-04-26T07:26:51;95783.47;;;13.31;55.68
56038;BME280;41907;47.848;9.000;2023-04-26T07:29:16;95774.69;;;13.22;55.45
56038;BME280;41907;47.848;9.000;2023-04-26T07:31:42;95768.69;;;13.25;56.84
56038;BME280;41907;47.848;9.000;2023-04-26T07:34:08;95765.84;;;14.34;53.74
56038;BME280;41907;47.848;9.000;2023-04-26T07:36:33;95767.75;;;14.67;55.53
56038;BME280;41907;47.848;9.000;2023-04-26T07:38:58;95763.19;;;14.67;57.39
56038;BME280;41907;47.848;9.000;2023-04-26T07:41:23;95769.06;;;14.07;58.53
56038;BME280;41907;47.848;9.000;2023-04-26T07:43:49;95769.06;;;13.45;57.10
56038;BME280;41907;47.848;9.000;2023-04-26T07:46:14;95774.38;;;13.53;56.63
56038;BME280;41907;47.848;9.000;2023-04-26T07:48:39;95764.75;;;13.23;57.89
56038;BME280;41907;47.848;9.000;2023-04-26T07:51:08;95766.09;;;12.61;58.67
56038;BME280;41907;47.848;9.000;2023-04-26T07:53:34;95762.06;;;12.21;62.13
56038;BME280;41907;47.848;9.000;2023-04-26T07:55:59;95768.63;;;12.49;64.03
56038;BME280;41907;47.848;9.000;2023-04-26T07:58:24;95763.31;;;12.32;62.10
56038;BME280;41907;47.848;9.000;2023-04-26T08:00:49;95761.97;;;13.11;59.91
56038;BME280;41907;47.848;9.000;2023-04-26T08:03:15;95767.25;;;12.17;61.97
56038;BME280;41907;47.848;9.000;2023-04-26T08:05:41;95768.84;;;12.01;63.18
56038;BME280;41907;47.848;9.000;2023-04-26T08:08:07;95761.72;;;11.71;65.37
56038;BME280;41907;47.848;9.000;2023-04-26T08:10:32;95770.00;;;10.87;68.24
56038;BME280;41907;47.848;9.000;2023-04-26T08:12:57;95765.38;;;10.70;70.62
56038;BME280;41907;47.848;9.000;2023-04-26T08:15:27;95766.78;;;10.67;71.82
56038;BME280;41907;47.848;9.000;2023-04-26T08:17:52;95766.84;;;10.23;74.66
56038;BME280;41907;47.848;9.000;2023-04-26T08:20:17;95773.50;;;10.34;75.11
56038;BME280;41907;47.848;9.000;2023-04-26T08:22:42;95762.25;;;10.76;73.46
56038;BME280;41907;47.848;9.000;2023-04-26T08:25:08;95759.41;;;13.73;66.41
56038;BME280;41907;47.848;9.000;2023-04-26T08:27:34;95761.16;;;14.31;60.18
56038;BME280;41907;47.848;9.000;2023-04-26T08:30:00;95761.38;;;13.64;59.05
56038;BME280;41907;47.848;9.000;2023-04-26T08:32:26;95771.16;;;13.39;59.23
56038;BME280;41907;47.848;9.000;2023-04-26T08:34:51;95761.38;;;12.96;60.46
56038;BME280;41907;47.848;9.000;2023-04-26T08:37:16;95769.34;;;12.76;61.58
56038;BME280;41907;47.848;9.000;2023-04-26T08:39:42;95766.09;;;12.53;62.58
56038;BME280;41907;47.848;9.000;2023-04-26T08:42:13;95766.28;;;12.39;64.07
56038;BME280;41907;47.848;9.000;2023-04-26T08:44:43;95769.94;;;11.83;62.78
56038;BME280;41907;47.848;9.000;2023-04-26T08:47:11;95775.28;;;11.83;62.68
56038;BME280;41907;47.848;9.000;2023-04-26T08:49:41;95774.00;;;11.89;65.93
56038;BME280;41907;47.848;9.000;2023-04-26T08:52:08;95774.50;;;11.82;66.03
56038;BME280;41907;47.848;9.000;2023-04-26T08:54:35;95770.91;;;11.96;65.82
56038;BME280;41907;47.848;9.000;2023-04-26T08:57:00;95776.72;;;11.98;65.34
56038;BME280;41907;47.848;9.000;2023-04-26T08:59:27;95776.22;;;12.04;65.58
56038;BME280;41907;47.848;9.000;2023-04-26T09:01:53;95779.84;;;12.17;62.23
56038;BME280;41907;47.848;9.000;2023-04-26T09:04:19;95782.69;;;12.12;64.64
56038;BME280;41907;47.848;9.000;2023-04-26T09:06:44;95781.56;;;12.13;63.72
56038;BME280;41907;47.848;9.000;2023-04-26T09:09:10;95783.41;;;12.64;63.99
56038;BME280;41907;47.848;9.000;2023-04-26T09:11:56;95771.34;;;12.87;61.15
56038;BME280;41907;47.848;9.000;2023-04-26T09:14:22;95779.38;;;12.87;61.31
56038;BME280;41907;47.848;9.000;2023-04-26T09:16:48;95771.44;;;13.08;57.70
56038;BME280;41907;47.848;9.000;2023-04-26T09:19:13;95768.25;;;12.68;59.14
56038;BME280;41907;47.848;9.000;2023-04-26T09:21:42;95768.25;;;13.15;61.98
56038;BME280;41907;47.848;9.000;2023-04-26T09:24:10;95774.22;;;13.50;59.47
56038;BME280;41907;47.848;9.000;2023-04-26T09:26:36;95777.34;;;13.81;57.42
56038;BME280;41907;47.848;9.000;2023-04-26T09:31:36;95760.59;;;14.38;51.35
56038;BME280;41907;47.848;9.000;2023-04-26T09:34:05;95758.69;;;13.64;53.26
56038;BME280;41907;47.848;9.000;2023-04-26T09:36:30;95750.03;;;14.21;52.06
56038;BME280;41907;47.848;9.000;2023-04-26T09:38:56;95756.31;;;14.25;53.06
56038;BME280;41907;47.848;9.000;2023-04-26T09:41:21;95754.50;;;14.95;52.28
56038;BME280;41907;47.848;9.000;2023-04-26T09:43:48;95754.31;;;16.00;51.29
56038;BME280;41907;47.848;9.000;2023-04-26T09:46:20;95745.69;;;16.94;44.50
56038;BME280;41907;47.848;9.000;2023-04-26T09:48:46;95746.50;;;16.51;45.72
56038;BME280;41907;47.848;9.000;2023-04-26T09:51:24;95750.97;;;16.31;48.08
56038;BME280;41907;47.848;9.000;2023-04-26T09:53:49;95751.81;;;16.35;46.37
56038;BME280;41907;47.848;9.000;2023-04-26T09:56:15;95750.66;;;15.93;46.15
56038;BME280;41907;47.848;9.000;2023-04-26T10:01:16;95741.16;;;16.39;47.73
56038;BME280;41907;47.848;9.000;2023-04-26T10:03:44;95744.91;;;16.78;47.40
56038;BME280;41907;47.848;9.000;2023-04-26T10:06:13;95740.81;;;17.31;43.91
56038;BME280;41907;47.848;9.000;2023-04-26T10:08:38;95741.88;;;17.97;43.20
56038;BME280;41907;47.848;9.000;2023-04-26T10:11:04;95740.72;;;18.55;42.36
56038;BME280;41907;47.848;9.000;2023-04-26T10:13:31;95741.31;;;18.45;40.39
56038;BME280;41907;47.848;9.000;2023-04-26T10:15:57;95741.19;;;18.00;40.22
56038;BME280;41907;47.848;9.000;2023-04-26T10:18:22;95748.03;;;17.78;40.29
56038;BME280;41907;47.848;9.000;2023-04-26T10:20:49;95740.13;;;17.34;39.25
56038;BME280;41907;47.848;9.000;2023-04-26T10:23:20;95733.84;;;17.30;41.46
56038;BME280;41907;47.848;9.000;2023-04-26T10:25:46;95727.81;;;17.53;41.08
56038;BME280;41907;47.848;9.000;2023-04-26T10:28:11;95729.59;;;17.14;42.52
56038;BME280;41907;47.848;9.000;2023-04-26T10:30:52;95722.91;;;16.76;44.31
56038;BME280;41907;47.848;9.000;2023-04-26T10:33:18;95728.56;;;16.87;43.74
56038;BME280;41907;47.848;9.000;2023-04-26T10:38:27;95736.31;;;14.55;47.66
56038;BME280;41907;47.848;9.000;2023-04-26T10:40:53;95725.03;;;14.74;46.09
56038;BME280;41907;47.848;9.000;2023-04-26T10:45:44;95724.44;;;13.69;50.26
56038;BME280;41907;47.848;9.000;2023-04-26T10:48:16;95728.28;;;13.39;50.64
56038;BME280;41907;47.848;9.000;2023-04-26T10:53:28;95727.31;;;13.14;50.71
56038;BME280;41907;47.848;9.000;2023-04-26T10:55:54;95721.63;;;13.45;50.41
56038;BME280;41907;47.848;9.000;2023-04-26T11:01:06;95705.78;;;14.60;49.31
56038;BME280;41907;47.848;9.000;2023-04-26T11:03:32;95705.59;;;15.13;48.15
56038;BME280;41907;47.848;9.000;2023-04-26T11:05:57;95705.91;;;15.36;46.58
56038;BME280;41907;47.848;9.000;2023-04-26T11:08:26;95697.19;;;15.27;47.02
56038;BME280;41907;47.848;9.000;2023-04-26T11:11:03;95699.34;;;14.97;46.94
56038;BME280;41907;47.848;9.000;2023-04-26T11:13:29;95699.00;;;14.62;46.18
56038;BME280;41907;47.848;9.000;2023-04-26T11:15:59;95707.22;;;13.91;48.07
56038;BME280;41907;47.848;9.000;2023-04-26T11:18:24;95707.31;;;14.15;48.19
56038;BME280;41907;47.848;9.000;2023-04-26T11:20:49;95703.00;;;13.69;48.10
56038;BME280;41907;47.848;9.000;2023-04-26T11:23:16;95701.56;;;13.30;50.62
56038;BME280;41907;47.848;9.000;2023-04-26T11:25:42;95703.00;;;13.28;50.35
56038;BME280;41907;47.848;9.000;2023-04-26T11:28:08;95691.81;;;13.47;50.88
56038;BME280;41907;47.848;9.000;2023-04-26T11:30:33;95695.22;;;13.56;48.88
56038;BME280;41907;47.848;9.000;2023-04-26T11:32:59;95692.72;;;13.71;48.13
56038;BME280;41907;47.848;9.000;2023-04-26T11:35:24;95682.72;;;13.81;48.58
56038;BME280;41907;47.848;9.000;2023-04-26T11:37:50;95670.63;;;13.74;47.63
56038;BME280;41907;47.848;9.000;2023-04-26T11:40:16;95679.59;;;13.37;50.28
56038;BME280;41907;47.848;9.000;2023-04-26T11:42:42;95692.03;;;13.62;50.23
56038;BME280;41907;47.848;9.000;2023-04-26T11:45:07;95681.91;;;14.01;50.79
56038;BME280;41907;47.848;9.000;2023-04-26T11:47:33;95684.28;;;14.47;50.32
56038;BME280;41907;47.848;9.000;2023-04-26T11:49:58;95689.13;;;14.66;48.94
56038;BME280;41907;47.848;9.000;2023-04-26T11:52:25;95681.63;;;14.60;47.04
56038;BME280;41907;47.848;9.000;2023-04-26T11:54:56;95682.16;;;14.08;47.09
56038;BME280;41907;47.848;9.000;2023-04-26T11:57:25;95686.84;;;13.36;49.55
56038;BME280;41907;47.848;9.000;2023-04-26T12:00:05;95690.63;;;13.06;51.28
56038;BME280;41907;47.848;9.000;2023-04-26T12:02:30;95687.13;;;13.44;50.60
56038;BME280;41907;47.848;9.000;2023-04-26T12:04:58;95688.75;;;13.36;49.27
56038;BME280;41907;47.848;9.000;2023-04-26T12:07:23;95695.47;;;13.63;49.13
56038;BME280;41907;47.848;9.000;2023-04-26T12:09:48;95691.63;;;13.72;48.89
56038;BME280;41907;47.848;9.000;2023-04-26T12:12:14;95695.13;;;14.06;50.15
56038;BME280;41907;47.848;9.000;2023-04-26T12:14:39;95685.69;;;14.33;47.57
56038;BME280;41907;47.848;9.000;2023-04-26T12:17:05;95678.50;;;14.12;48.17
56038;BME280;41907;47.848;9.000;2023-04-26T12:19:34;95687.34;;;14.25;50.66
56038;BME280;41907;47.848;9.000;2023-04-26T12:22:03;95681.16;;;14.45;48.57
56038;BME280;41907;47.848;9.000;2023-04-26T12:24:29;95674.03;;;14.49;45.93
56038;BME280;41907;47.848;9.000;2023-04-26T12:26:57;95685.97;;;14.40;49.13
56038;BME280;41907;47.848;9.000;2023-04-26T12:29:22;95686.91;;;14.23;47.66
56038;BME280;41907;47.848;9.000;2023-04-26T12:31:48;95681.72;;;14.39;47.71
56038;BME280;41907;47.848;9.000;2023-04-26T12:34:13;95682.00;;;15.07;48.57
56038;BME280;41907;47.848;9.000;2023-04-26T12:36:41;95682.53;;;15.24;46.62
56038;BME280;41907;47.848;9.000;2023-04-26T12:39:12;95675.97;;;14.98;47.08
56038;BME280;41907;47.848;9.000;2023-04-26T12:41:40;95670.94;;;14.72;45.95
56038;BME280;41907;47.848;9.000;2023-04-26T12:44:06;95671.25;;;14.25;45.78
56038;BME280;41907;47.848;9.000;2023-04-26T12:46:31;95660.75;;;14.20;46.56
56038;BME280;41907;47.848;9.000;2023-04-26T12:48:57;95657.34;;;14.44;46.90
56038;BME280;41907;47.848;9.000;2023-04-26T12:51:22;95664.84;;;15.23;46.44
56038;BME280;41907;47.848;9.000;2023-04-26T12:53:48;95656.31;;;15.46;44.00
56038;BME280;41907;47.848;9.000;2023-04-26T12:56:13;95656.53;;;16.09;44.72
56038;BME280;41907;47.848;9.000;2023-04-26T12:58:40;95655.09;;;16.27;44.18
56038;BME280;41907;47.848;9.000;2023-04-26T13:01:05;95652.56;;;16.18;46.77
56038;BME280;41907;47.848;9.000;2023-04-26T13:03:30;95655.28;;;16.50;45.48
56038;BME280;41907;47.848;9.000;2023-04-26T13:05:55;95647.06;;;16.15;43.17
56038;BME280;41907;47.848;9.000;2023-04-26T13:08:21;95651.00;;;15.89;44.07
56038;BME280;41907;47.848;9.000;2023-04-26T13:10:46;95652.69;;;15.94;42.66